sensor_id;sensor_type;location;lat;lon;timestamp;P1;durP1;ratioP1;P2;durP2;ratioP2
66342;SDS011;53144;51.524;5.080;2022-08-24T00:02:09;12.98;;;8.88;;
66342;SDS011;53144;51.524;5.080;2022-08-24T00:04:34;8.40;;;7.05;;
66342;SDS011;53144;51.524;5.080;2022-08-24T00:07:00;10.70;;;8.00;;
66342;SDS011;53144;51.524;5.080;2022-08-24T00:09:28;9.00;;;8.10;;
66342;SDS011;53144;51.524;5.080;2022-08-24T00:11:54;9.48;;;7.93;;
66342;SDS011;53144;51.524;5.080;2022-08-24T00:14:20;11.80;;;8.05;;
66342;SDS011;53144;51.524;5.080;2022-08-24T00:16:45;8.60;;;7.40;;
66342;SDS011;53144;51.524;5.080;2022-08-24T00:19:11;9.13;;;7.57;;
66342;SDS011;53144;51.524;5.080;2022-08-24T00:21:36;10.82;;;7.85;;
66342;SDS011;53144;51.524;5.080;2022-08-24T00:24:03;13.05;;;8.30;;
66342;SDS011;53144;51.524;5.080;2022-08-24T00:26:29;10.02;;;7.90;;
66342;SDS011;53144;51.524;5.080;2022-08-24T00:28:55;9.40;;;7.07;;
66342;SDS011;53144;51.524;5.080;2022-08-24T00:31:22;6.90;;;6.18;;
66342;SDS011;53144;51.524;5.080;2022-08-24T00:33:47;8.25;;;5.82;;
66342;SDS011;53144;51.524;5.080;2022-08-24T00:36:12;8.02;;;6.80;;
66342;SDS011;53144;51.524;5.080;2022-08-24T00:38:38;7.43;;;6.70;;
66342;SDS011;53144;51.524;5.080;2022-08-24T00:41:04;8.23;;;6.68;;
66342;SDS011;53144;51.524;5.080;2022-08-24T00:43:30;7.97;;;6.40;;
66342;SDS011;53144;51.524;5.080;2022-08-24T00:48:38;7.43;;;5.63;;
66342;SDS011;53144;51.524;5.080;2022-08-24T00:51:50;6.95;;;5.63;;
66342;SDS011;53144;51.524;5.080;2022-08-24T00:54:01;5.93;;;5.43;;
66342;SDS011;53144;51.524;5.080;2022-08-24T00:56:33;8.52;;;5.55;;
66342;SDS011;53144;51.524;5.080;2022-08-24T00:59:05;6.43;;;5.82;;
66342;SDS011;53144;51.524;5.080;2022-08-24T01:01:35;7.35;;;5.95;;
66342;SDS011;53144;51.524;5.080;2022-08-24T01:04:02;9.00;;;7.10;;
66342;SDS011;53144;51.524;5.080;2022-08-24T01:06:29;6.97;;;6.18;;
66342;SDS011;53144;51.524;5.080;2022-08-24T01:08:57;7.65;;;5.75;;
66342;SDS011;53144;51.524;5.080;2022-08-24T01:11:23;9.35;;;7.20;;
66342;SDS011;53144;51.524;5.080;2022-08-24T01:13:51;7.80;;;7.00;;
66342;SDS011;53144;51.524;5.080;2022-08-24T01:16:18;8.38;;;6.93;;
66342;SDS011;53144;51.524;5.080;2022-08-24T01:19:06;11.27;;;8.00;;
66342;SDS011;53144;51.524;5.080;2022-08-24T01:24:34;8.77;;;7.72;;
66342;SDS011;53144;51.524;5.080;2022-08-24T01:27:00;10.10;;;7.97;;
66342;SDS011;53144;51.524;5.080;2022-08-24T01:29:26;9.23;;;8.30;;
66342;SDS011;53144;51.524;5.080;2022-08-24T01:31:55;9.98;;;7.65;;
66342;SDS011;53144;51.524;5.080;2022-08-24T01:34:20;11.30;;;9.30;;
66342;SDS011;53144;51.524;5.080;2022-08-24T01:36:47;9.73;;;7.85;;
66342;SDS011;53144;51.524;5.080;2022-08-24T01:39:24;9.27;;;7.97;;
66342;SDS011;53144;51.524;5.080;2022-08-24T01:41:53;10.27;;;9.07;;
66342;SDS011;53144;51.524;5.080;2022-08-24T01:44:19;11.55;;;8.00;;
66342;SDS011;53144;51.524;5.080;2022-08-24T01:46:46;10.32;;;7.93;;
66342;SDS011;53144;51.524;5.080;2022-08-24T01:49:13;8.93;;;7.40;;
66342;SDS011;53144;51.524;5.080;2022-08-24T01:51:40;8.68;;;7.78;;
66342;SDS011;53144;51.524;5.080;2022-08-24T01:54:06;10.30;;;8.00;;
66342;SDS011;53144;51.524;5.080;2022-08-24T01:56:32;8.50;;;7.57;;
66342;SDS011;53144;51.524;5.080;2022-08-24T01:58:58;8.85;;;7.75;;
66342;SDS011;53144;51.524;5.080;2022-08-24T02:01:25;9.90;;;8.90;;
66342;SDS011;53144;51.524;5.080;2022-08-24T02:03:53;9.70;;;8.70;;
66342;SDS011;53144;51.524;5.080;2022-08-24T02:06:18;10.55;;;8.85;;
66342;SDS011;53144;51.524;5.080;2022-08-24T02:08:47;12.95;;;9.07;;
66342;SDS011;53144;51.524;5.080;2022-08-24T02:11:13;12.25;;;9.27;;
66342;SDS011;53144;51.524;5.080;2022-08-24T02:13:39;10.80;;;8.43;;
66342;SDS011;53144;51.524;5.080;2022-08-24T02:16:06;11.77;;;9.20;;
66342;SDS011;53144;51.524;5.080;2022-08-24T02:18:33;10.40;;;8.95;;
66342;SDS011;53144;51.524;5.080;2022-08-24T02:21:00;11.80;;;9.60;;
66342;SDS011;53144;51.524;5.080;2022-08-24T02:23:26;11.95;;;9.80;;
66342;SDS011;53144;51.524;5.080;2022-08-24T02:25:53;9.70;;;8.05;;
66342;SDS011;53144;51.524;5.080;2022-08-24T02:28:19;12.68;;;7.75;;
66342;SDS011;53144;51.524;5.080;2022-08-24T02:30:45;10.05;;;8.95;;
66342;SDS011;53144;51.524;5.080;2022-08-24T02:33:11;9.82;;;8.57;;
66342;SDS011;53144;51.524;5.080;2022-08-24T02:35:40;12.15;;;9.43;;
66342;SDS011;53144;51.524;5.080;2022-08-24T02:38:06;10.00;;;8.27;;
66342;SDS011;53144;51.524;5.080;2022-08-24T02:40:33;8.20;;;7.40;;
66342;SDS011;53144;51.524;5.080;2022-08-24T02:42:58;11.38;;;7.57;;
66342;SDS011;53144;51.524;5.080;2022-08-24T02:45:24;5.47;;;4.90;;
66342;SDS011;53144;51.524;5.080;2022-08-24T02:47:49;5.53;;;4.80;;
66342;SDS011;53144;51.524;5.080;2022-08-24T02:50:15;5.43;;;4.85;;
66342;SDS011;53144;51.524;5.080;2022-08-24T02:52:41;5.70;;;4.90;;
66342;SDS011;53144;51.524;5.080;2022-08-24T02:55:08;5.85;;;5.35;;
66342;SDS011;53144;51.524;5.080;2022-08-24T02:57:36;6.32;;;5.72;;
66342;SDS011;53144;51.524;5.080;2022-08-24T03:00:03;7.90;;;6.72;;
66342;SDS011;53144;51.524;5.080;2022-08-24T03:02:30;9.68;;;6.93;;
66342;SDS011;53144;51.524;5.080;2022-08-24T03:04:55;9.02;;;7.43;;
66342;SDS011;53144;51.524;5.080;2022-08-24T03:07:21;8.98;;;8.07;;
66342;SDS011;53144;51.524;5.080;2022-08-24T03:09:46;10.50;;;8.93;;
66342;SDS011;53144;51.524;5.080;2022-08-24T03:12:11;9.63;;;8.63;;
66342;SDS011;53144;51.524;5.080;2022-08-24T03:14:37;10.60;;;8.90;;
66342;SDS011;53144;51.524;5.080;2022-08-24T03:17:02;12.15;;;9.75;;
66342;SDS011;53144;51.524;5.080;2022-08-24T03:19:28;12.32;;;8.73;;
66342;SDS011;53144;51.524;5.080;2022-08-24T03:21:54;9.60;;;8.57;;
66342;SDS011;53144;51.524;5.080;2022-08-24T03:24:19;9.80;;;8.63;;
66342;SDS011;53144;51.524;5.080;2022-08-24T03:26:45;11.18;;;9.65;;
66342;SDS011;53144;51.524;5.080;2022-08-24T03:29:11;15.93;;;11.50;;
66342;SDS011;53144;51.524;5.080;2022-08-24T03:31:36;15.45;;;11.00;;
66342;SDS011;53144;51.524;5.080;2022-08-24T03:34:02;13.77;;;11.15;;
66342;SDS011;53144;51.524;5.080;2022-08-24T03:36:28;12.48;;;11.18;;
66342;SDS011;53144;51.524;5.080;2022-08-24T03:38:53;14.82;;;11.38;;
66342;SDS011;53144;51.524;5.080;2022-08-24T03:41:19;12.85;;;10.32;;
66342;SDS011;53144;51.524;5.080;2022-08-24T03:43:44;15.82;;;10.93;;
66342;SDS011;53144;51.524;5.080;2022-08-24T03:46:10;13.38;;;10.65;;
66342;SDS011;53144;51.524;5.080;2022-08-24T03:48:36;13.93;;;11.98;;
66342;SDS011;53144;51.524;5.080;2022-08-24T03:51:04;17.77;;;13.18;;
66342;SDS011;53144;51.524;5.080;2022-08-24T03:53:29;15.27;;;11.75;;
66342;SDS011;53144;51.524;5.080;2022-08-24T03:55:55;13.88;;;10.50;;
66342;SDS011;53144;51.524;5.080;2022-08-24T03:58:20;15.27;;;10.57;;
66342;SDS011;53144;51.524;5.080;2022-08-24T04:00:45;13.98;;;11.02;;
66342;SDS011;53144;51.524;5.080;2022-08-24T04:03:11;15.70;;;9.98;;
66342;SDS011;53144;51.524;5.080;2022-08-24T04:05:37;14.25;;;10.60;;
66342;SDS011;53144;51.524;5.080;2022-08-24T04:08:04;11.45;;;10.25;;
66342;SDS011;53144;51.524;5.080;2022-08-24T04:10:31;12.00;;;10.25;;
66342;SDS011;53144;51.524;5.080;2022-08-24T04:12:57;14.50;;;10.65;;
66342;SDS011;53144;51.524;5.080;2022-08-24T04:15:25;13.77;;;10.65;;
66342;SDS011;53144;51.524;5.080;2022-08-24T04:17:50;13.57;;;10.65;;
66342;SDS011;53144;51.524;5.080;2022-08-24T04:20:16;16.92;;;13.63;;
66342;SDS011;53144;51.524;5.080;2022-08-24T04:22:41;14.57;;;11.98;;
66342;SDS011;53144;51.524;5.080;2022-08-24T04:25:08;20.67;;;12.40;;
66342;SDS011;53144;51.524;5.080;2022-08-24T04:27:34;14.93;;;11.70;;
66342;SDS011;53144;51.524;5.080;2022-08-24T04:29:59;15.45;;;12.13;;
66342;SDS011;53144;51.524;5.080;2022-08-24T04:32:24;14.75;;;11.43;;
66342;SDS011;53144;51.524;5.080;2022-08-24T04:34:50;14.77;;;11.75;;
66342;SDS011;53144;51.524;5.080;2022-08-24T04:37:15;15.45;;;11.63;;
66342;SDS011;53144;51.524;5.080;2022-08-24T04:39:42;14.80;;;13.27;;
66342;SDS011;53144;51.524;5.080;2022-08-24T04:42:08;17.27;;;13.23;;
66342;SDS011;53144;51.524;5.080;2022-08-24T04:44:35;16.52;;;13.82;;
66342;SDS011;53144;51.524;5.080;2022-08-24T04:47:01;16.58;;;13.15;;
66342;SDS011;53144;51.524;5.080;2022-08-24T04:49:26;19.98;;;14.40;;
66342;SDS011;53144;51.524;5.080;2022-08-24T04:51:52;18.48;;;15.18;;
66342;SDS011;53144;51.524;5.080;2022-08-24T04:54:18;17.95;;;14.40;;
66342;SDS011;53144;51.524;5.080;2022-08-24T04:56:43;18.42;;;14.60;;
66342;SDS011;53144;51.524;5.080;2022-08-24T04:59:08;16.30;;;14.27;;
66342;SDS011;53144;51.524;5.080;2022-08-24T05:01:34;16.95;;;14.10;;
66342;SDS011;53144;51.524;5.080;2022-08-24T05:04:00;16.98;;;14.30;;
66342;SDS011;53144;51.524;5.080;2022-08-24T05:06:27;19.90;;;13.77;;
66342;SDS011;53144;51.524;5.080;2022-08-24T05:08:54;18.38;;;12.75;;
66342;SDS011;53144;51.524;5.080;2022-08-24T05:11:21;17.38;;;12.98;;
66342;SDS011;53144;51.524;5.080;2022-08-24T05:13:47;14.40;;;12.18;;
66342;SDS011;53144;51.524;5.080;2022-08-24T05:16:16;14.02;;;12.48;;
66342;SDS011;53144;51.524;5.080;2022-08-24T05:18:42;16.60;;;13.90;;
66342;SDS011;53144;51.524;5.080;2022-08-24T05:21:08;17.23;;;13.52;;
66342;SDS011;53144;51.524;5.080;2022-08-24T05:23:36;14.43;;;12.50;;
66342;SDS011;53144;51.524;5.080;2022-08-24T05:26:03;16.05;;;13.52;;
66342;SDS011;53144;51.524;5.080;2022-08-24T05:28:34;16.05;;;12.65;;
66342;SDS011;53144;51.524;5.080;2022-08-24T05:31:14;15.52;;;10.43;;
66342;SDS011;53144;51.524;5.080;2022-08-24T05:33:42;36.03;;;10.18;;
66342;SDS011;53144;51.524;5.080;2022-08-24T05:36:14;13.68;;;9.90;;
66342;SDS011;53144;51.524;5.080;2022-08-24T05:38:50;9.52;;;8.52;;
66342;SDS011;53144;51.524;5.080;2022-08-24T05:41:17;11.05;;;8.70;;
66342;SDS011;53144;51.524;5.080;2022-08-24T05:43:43;12.02;;;8.05;;
66342;SDS011;53144;51.524;5.080;2022-08-24T05:46:09;11.02;;;8.82;;
66342;SDS011;53144;51.524;5.080;2022-08-24T05:48:37;10.05;;;8.93;;
66342;SDS011;53144;51.524;5.080;2022-08-24T05:51:04;11.95;;;9.50;;
66342;SDS011;53144;51.524;5.080;2022-08-24T05:53:31;11.45;;;9.48;;
66342;SDS011;53144;51.524;5.080;2022-08-24T05:55:57;11.45;;;9.85;;
66342;SDS011;53144;51.524;5.080;2022-08-24T05:58:23;11.80;;;10.43;;
66342;SDS011;53144;51.524;5.080;2022-08-24T06:00:48;12.38;;;11.07;;
66342;SDS011;53144;51.524;5.080;2022-08-24T06:03:14;15.45;;;12.40;;
66342;SDS011;53144;51.524;5.080;2022-08-24T06:05:41;17.30;;;14.07;;
66342;SDS011;53144;51.524;5.080;2022-08-24T06:08:07;19.65;;;16.70;;
66342;SDS011;53144;51.524;5.080;2022-08-24T06:10:40;20.10;;;17.67;;
66342;SDS011;53144;51.524;5.080;2022-08-24T06:13:08;34.60;;;22.90;;
66342;SDS011;53144;51.524;5.080;2022-08-24T06:15:35;27.17;;;22.75;;
66342;SDS011;53144;51.524;5.080;2022-08-24T06:18:02;30.42;;;23.13;;
66342;SDS011;53144;51.524;5.080;2022-08-24T06:20:29;26.63;;;21.33;;
66342;SDS011;53144;51.524;5.080;2022-08-24T06:22:54;27.13;;;23.27;;
66342;SDS011;53144;51.524;5.080;2022-08-24T06:25:20;29.63;;;26.48;;
66342;SDS011;53144;51.524;5.080;2022-08-24T06:28:04;42.45;;;36.55;;
66342;SDS011;53144;51.524;5.080;2022-08-24T06:30:29;49.53;;;40.53;;
66342;SDS011;53144;51.524;5.080;2022-08-24T06:32:57;45.95;;;39.75;;
66342;SDS011;53144;51.524;5.080;2022-08-24T06:35:24;44.78;;;39.47;;
66342;SDS011;53144;51.524;5.080;2022-08-24T06:37:49;46.60;;;40.00;;
66342;SDS011;53144;51.524;5.080;2022-08-24T06:40:15;47.70;;;42.22;;
66342;SDS011;53144;51.524;5.080;2022-08-24T06:42:40;45.25;;;40.22;;
66342;SDS011;53144;51.524;5.080;2022-08-24T06:45:06;43.17;;;38.28;;
66342;SDS011;53144;51.524;5.080;2022-08-24T06:47:32;46.70;;;39.58;;
66342;SDS011;53144;51.524;5.080;2022-08-24T06:49:58;45.58;;;39.80;;
66342;SDS011;53144;51.524;5.080;2022-08-24T06:52:23;47.45;;;37.67;;
66342;SDS011;53144;51.524;5.080;2022-08-24T06:54:49;42.38;;;37.67;;
66342;SDS011;53144;51.524;5.080;2022-08-24T06:57:15;43.67;;;38.95;;
66342;SDS011;53144;51.524;5.080;2022-08-24T06:59:40;42.55;;;36.70;;
66342;SDS011;53144;51.524;5.080;2022-08-24T07:02:07;40.55;;;36.28;;
66342;SDS011;53144;51.524;5.080;2022-08-24T07:04:33;40.05;;;35.70;;
66342;SDS011;53144;51.524;5.080;2022-08-24T07:06:58;40.53;;;34.28;;
66342;SDS011;53144;51.524;5.080;2022-08-24T07:09:24;39.42;;;35.13;;
66342;SDS011;53144;51.524;5.080;2022-08-24T07:11:50;35.97;;;32.17;;
66342;SDS011;53144;51.524;5.080;2022-08-24T07:14:16;34.60;;;30.98;;
66342;SDS011;53144;51.524;5.080;2022-08-24T07:16:43;32.83;;;29.25;;
66342;SDS011;53144;51.524;5.080;2022-08-24T07:19:09;28.15;;;24.45;;
66342;SDS011;53144;51.524;5.080;2022-08-24T07:21:34;34.63;;;26.35;;
66342;SDS011;53144;51.524;5.080;2022-08-24T07:24:00;31.80;;;26.70;;
66342;SDS011;53144;51.524;5.080;2022-08-24T07:26:27;30.55;;;26.83;;
66342;SDS011;53144;51.524;5.080;2022-08-24T07:29:01;36.08;;;27.85;;
66342;SDS011;53144;51.524;5.080;2022-08-24T07:31:34;32.35;;;29.08;;
66342;SDS011;53144;51.524;5.080;2022-08-24T07:34:01;32.75;;;28.88;;
66342;SDS011;53144;51.524;5.080;2022-08-24T07:36:28;35.03;;;31.00;;
66342;SDS011;53144;51.524;5.080;2022-08-24T07:38:53;33.35;;;29.75;;
66342;SDS011;53144;51.524;5.080;2022-08-24T07:41:20;35.72;;;32.03;;
66342;SDS011;53144;51.524;5.080;2022-08-24T07:43:49;35.95;;;32.03;;
66342;SDS011;53144;51.524;5.080;2022-08-24T07:46:15;35.50;;;31.63;;
66342;SDS011;53144;51.524;5.080;2022-08-24T07:48:40;34.65;;;29.92;;
66342;SDS011;53144;51.524;5.080;2022-08-24T07:51:07;32.35;;;28.10;;
66342;SDS011;53144;51.524;5.080;2022-08-24T07:53:33;30.52;;;26.77;;
66342;SDS011;53144;51.524;5.080;2022-08-24T07:55:59;29.92;;;26.00;;
66342;SDS011;53144;51.524;5.080;2022-08-24T07:58:24;24.10;;;21.48;;
66342;SDS011;53144;51.524;5.080;2022-08-24T08:00:50;22.67;;;20.10;;
66342;SDS011;53144;51.524;5.080;2022-08-24T08:03:15;27.90;;;19.63;;
66342;SDS011;53144;51.524;5.080;2022-08-24T08:05:41;27.88;;;19.60;;
66342;SDS011;53144;51.524;5.080;2022-08-24T08:08:07;24.67;;;18.80;;
66342;SDS011;53144;51.524;5.080;2022-08-24T08:10:33;22.55;;;19.88;;
66342;SDS011;53144;51.524;5.080;2022-08-24T08:13:05;22.70;;;19.17;;
66342;SDS011;53144;51.524;5.080;2022-08-24T08:15:32;24.75;;;16.55;;
66342;SDS011;53144;51.524;5.080;2022-08-24T08:17:58;23.60;;;17.85;;
66342;SDS011;53144;51.524;5.080;2022-08-24T08:20:24;25.73;;;18.63;;
66342;SDS011;53144;51.524;5.080;2022-08-24T08:22:49;23.98;;;19.23;;
66342;SDS011;53144;51.524;5.080;2022-08-24T08:25:33;21.63;;;18.58;;
66342;SDS011;53144;51.524;5.080;2022-08-24T08:28:02;30.55;;;19.58;;
66342;SDS011;53144;51.524;5.080;2022-08-24T08:30:30;26.40;;;19.10;;
66342;SDS011;53144;51.524;5.080;2022-08-24T08:32:57;24.63;;;18.52;;
66342;SDS011;53144;51.524;5.080;2022-08-24T08:35:25;21.58;;;17.42;;
66342;SDS011;53144;51.524;5.080;2022-08-24T08:37:50;19.80;;;17.08;;
66342;SDS011;53144;51.524;5.080;2022-08-24T08:41:02;22.92;;;20.08;;
66342;SDS011;53144;51.524;5.080;2022-08-24T08:49:21;26.42;;;20.33;;
66342;SDS011;53144;51.524;5.080;2022-08-24T08:54:13;22.80;;;17.20;;
66342;SDS011;53144;51.524;5.080;2022-08-24T09:05:34;23.58;;;18.98;;
66342;SDS011;53144;51.524;5.080;2022-08-24T09:08:19;23.67;;;18.63;;
66342;SDS011;53144;51.524;5.080;2022-08-24T09:11:08;23.23;;;16.05;;
66342;SDS011;53144;51.524;5.080;2022-08-24T09:14:02;20.88;;;16.40;;
66342;SDS011;53144;51.524;5.080;2022-08-24T09:22:43;12.30;;;10.95;;
66342;SDS011;53144;51.524;5.080;2022-08-24T09:30:47;16.80;;;10.27;;
66342;SDS011;53144;51.524;5.080;2022-08-24T09:33:35;11.55;;;9.50;;
66342;SDS011;53144;51.524;5.080;2022-08-24T09:41:41;14.27;;;7.13;;
66342;SDS011;53144;51.524;5.080;2022-08-24T09:47:55;9.15;;;4.18;;
66342;SDS011;53144;51.524;5.080;2022-08-24T10:01:34;9.90;;;5.68;;
66342;SDS011;53144;51.524;5.080;2022-08-24T10:07:23;8.07;;;4.55;;
66342;SDS011;53144;51.524;5.080;2022-08-24T10:10:06;6.32;;;4.00;;
66342;SDS011;53144;51.524;5.080;2022-08-24T10:13:02;8.15;;;3.70;;
66342;SDS011;53144;51.524;5.080;2022-08-24T10:18:43;9.98;;;4.90;;
66342;SDS011;53144;51.524;5.080;2022-08-24T10:24:27;8.10;;;4.32;;
66342;SDS011;53144;51.524;5.080;2022-08-24T10:32:38;12.43;;;5.03;;
66342;SDS011;53144;51.524;5.080;2022-08-24T10:35:35;7.32;;;4.40;;
66342;SDS011;53144;51.524;5.080;2022-08-24T10:52:44;6.40;;;4.18;;
66342;SDS011;53144;51.524;5.080;2022-08-24T10:54:50;7.72;;;3.97;;
66342;SDS011;53144;51.524;5.080;2022-08-24T10:57:29;10.95;;;3.83;;
66342;SDS011;53144;51.524;5.080;2022-08-24T11:02:38;10.20;;;4.32;;
66342;SDS011;53144;51.524;5.080;2022-08-24T11:05:13;8.95;;;4.10;;
66342;SDS011;53144;51.524;5.080;2022-08-24T11:08:01;3.97;;;3.38;;
66342;SDS011;53144;51.524;5.080;2022-08-24T11:10:30;5.00;;;3.70;;
66342;SDS011;53144;51.524;5.080;2022-08-24T11:16:01;6.22;;;3.78;;
66342;SDS011;53144;51.524;5.080;2022-08-24T11:19:02;3.97;;;3.58;;
66342;SDS011;53144;51.524;5.080;2022-08-24T11:21:33;4.35;;;3.55;;
66342;SDS011;53144;51.524;5.080;2022-08-24T11:24:01;6.80;;;3.85;;
66342;SDS011;53144;51.524;5.080;2022-08-24T11:26:29;5.75;;;3.05;;
66342;SDS011;53144;51.524;5.080;2022-08-24T11:28:58;5.63;;;2.97;;
66342;SDS011;53144;51.524;5.080;2022-08-24T11:31:28;6.28;;;2.80;;
66342;SDS011;53144;51.524;5.080;2022-08-24T11:33:58;5.97;;;2.60;;
66342;SDS011;53144;51.524;5.080;2022-08-24T11:36:34;3.80;;;2.50;;
66342;SDS011;53144;51.524;5.080;2022-08-24T11:44:53;6.18;;;2.70;;
66342;SDS011;53144;51.524;5.080;2022-08-24T11:56:02;4.75;;;2.30;;
66342;SDS011;53144;51.524;5.080;2022-08-24T12:06:28;3.55;;;1.67;;
66342;SDS011;53144;51.524;5.080;2022-08-24T12:14:40;2.35;;;1.70;;
66342;SDS011;53144;51.524;5.080;2022-08-24T12:17:29;2.58;;;1.77;;
66342;SDS011;53144;51.524;5.080;2022-08-24T12:20:02;4.53;;;2.05;;
66342;SDS011;53144;51.524;5.080;2022-08-24T12:22:33;3.85;;;1.90;;
66342;SDS011;53144;51.524;5.080;2022-08-24T12:25:01;5.72;;;2.05;;
66342;SDS011;53144;51.524;5.080;2022-08-24T12:27:48;2.83;;;1.60;;
66342;SDS011;53144;51.524;5.080;2022-08-24T12:30:15;3.13;;;1.80;;
66342;SDS011;53144;51.524;5.080;2022-08-24T12:32:46;5.03;;;2.17;;
66342;SDS011;53144;51.524;5.080;2022-08-24T12:38:00;5.45;;;2.22;;
66342;SDS011;53144;51.524;5.080;2022-08-24T12:43:11;5.60;;;2.25;;
66342;SDS011;53144;51.524;5.080;2022-08-24T12:45:42;4.57;;;1.90;;
66342;SDS011;53144;51.524;5.080;2022-08-24T13:01:45;2.58;;;1.80;;
66342;SDS011;53144;51.524;5.080;2022-08-24T13:06:58;2.67;;;1.55;;
66342;SDS011;53144;51.524;5.080;2022-08-24T13:09:30;4.47;;;1.83;;
66342;SDS011;53144;51.524;5.080;2022-08-24T13:15:03;1.92;;;1.50;;
66342;SDS011;53144;51.524;5.080;2022-08-24T13:17:45;1.70;;;1.60;;
66342;SDS011;53144;51.524;5.080;2022-08-24T13:20:17;3.63;;;1.70;;
66342;SDS011;53144;51.524;5.080;2022-08-24T13:55:31;2.05;;;1.55;;
66342;SDS011;53144;51.524;5.080;2022-08-24T13:58:18;3.20;;;1.70;;
66342;SDS011;53144;51.524;5.080;2022-08-24T14:25:21;4.23;;;1.97;;
66342;SDS011;53144;51.524;5.080;2022-08-24T14:41:02;4.13;;;1.80;;
66342;SDS011;53144;51.524;5.080;2022-08-24T14:47:02;3.88;;;1.73;;
66342;SDS011;53144;51.524;5.080;2022-08-24T14:49:43;3.00;;;1.83;;
66342;SDS011;53144;51.524;5.080;2022-08-24T14:52:51;2.30;;;1.83;;
66342;SDS011;53144;51.524;5.080;2022-08-24T15:00:48;6.03;;;2.50;;
66342;SDS011;53144;51.524;5.080;2022-08-24T15:06:39;3.40;;;1.80;;
66342;SDS011;53144;51.524;5.080;2022-08-24T15:09:17;5.72;;;2.10;;
66342;SDS011;53144;51.524;5.080;2022-08-24T15:11:43;4.70;;;1.92;;
66342;SDS011;53144;51.524;5.080;2022-08-24T15:14:21;2.28;;;1.88;;
66342;SDS011;53144;51.524;5.080;2022-08-24T15:17:01;2.17;;;1.80;;
66342;SDS011;53144;51.524;5.080;2022-08-24T15:19:52;4.13;;;2.10;;
66342;SDS011;53144;51.524;5.080;2022-08-24T15:22:43;2.97;;;2.00;;
66342;SDS011;53144;51.524;5.080;2022-08-24T15:25:26;6.50;;;2.10;;
66342;SDS011;53144;51.524;5.080;2022-08-24T15:28:08;2.47;;;2.20;;
66342;SDS011;53144;51.524;5.080;2022-08-24T15:30:35;5.80;;;2.05;;
66342;SDS011;53144;51.524;5.080;2022-08-24T15:35:36;5.15;;;2.00;;
66342;SDS011;53144;51.524;5.080;2022-08-24T15:46:46;2.22;;;1.90;;
66342;SDS011;53144;51.524;5.080;2022-08-24T15:49:20;3.60;;;1.77;;
66342;SDS011;53144;51.524;5.080;2022-08-24T15:51:56;5.63;;;2.33;;
66342;SDS011;53144;51.524;5.080;2022-08-24T15:57:02;4.28;;;2.05;;
66342;SDS011;53144;51.524;5.080;2022-08-24T16:04:49;3.03;;;1.80;;
66342;SDS011;53144;51.524;5.080;2022-08-24T16:07:23;6.40;;;2.08;;
66342;SDS011;53144;51.524;5.080;2022-08-24T16:10:05;5.78;;;2.05;;
66342;SDS011;53144;51.524;5.080;2022-08-24T16:12:33;3.90;;;1.80;;
66342;SDS011;53144;51.524;5.080;2022-08-24T16:15:16;2.28;;;1.90;;
66342;SDS011;53144;51.524;5.080;2022-08-24T16:17:44;10.32;;;2.63;;
66342;SDS011;53144;51.524;5.080;2022-08-24T16:20:32;2.53;;;1.88;;
66342;SDS011;53144;51.524;5.080;2022-08-24T16:23:05;3.85;;;2.03;;
66342;SDS011;53144;51.524;5.080;2022-08-24T16:25:39;4.85;;;1.80;;
66342;SDS011;53144;51.524;5.080;2022-08-24T16:28:08;2.78;;;1.77;;
66342;SDS011;53144;51.524;5.080;2022-08-24T16:35:58;5.63;;;2.05;;
66342;SDS011;53144;51.524;5.080;2022-08-24T16:38:45;3.63;;;1.90;;
66342;SDS011;53144;51.524;5.080;2022-08-24T16:41:13;4.90;;;2.10;;
66342;SDS011;53144;51.524;5.080;2022-08-24T16:43:42;2.20;;;2.00;;
66342;SDS011;53144;51.524;5.080;2022-08-24T16:46:10;2.60;;;2.00;;
66342;SDS011;53144;51.524;5.080;2022-08-24T16:48:36;5.60;;;2.08;;
66342;SDS011;53144;51.524;5.080;2022-08-24T16:51:02;6.20;;;2.00;;
66342;SDS011;53144;51.524;5.080;2022-08-24T16:53:28;3.28;;;1.80;;
66342;SDS011;53144;51.524;5.080;2022-08-24T16:55:53;3.83;;;2.00;;
66342;SDS011;53144;51.524;5.080;2022-08-24T16:58:19;4.80;;;2.30;;
66342;SDS011;53144;51.524;5.080;2022-08-24T17:00:48;6.18;;;2.00;;
66342;SDS011;53144;51.524;5.080;2022-08-24T17:03:14;3.85;;;1.92;;
66342;SDS011;53144;51.524;5.080;2022-08-24T17:05:39;2.65;;;1.90;;
66342;SDS011;53144;51.524;5.080;2022-08-24T17:08:05;3.90;;;2.20;;
66342;SDS011;53144;51.524;5.080;2022-08-24T17:10:30;4.40;;;1.98;;
66342;SDS011;53144;51.524;5.080;2022-08-24T17:12:56;4.35;;;2.00;;
66342;SDS011;53144;51.524;5.080;2022-08-24T17:15:22;4.65;;;1.90;;
66342;SDS011;53144;51.524;5.080;2022-08-24T17:18:04;3.28;;;2.03;;
66342;SDS011;53144;51.524;5.080;2022-08-24T17:20:32;3.30;;;1.73;;
66342;SDS011;53144;51.524;5.080;2022-08-24T17:22:58;4.00;;;2.08;;
66342;SDS011;53144;51.524;5.080;2022-08-24T17:25:24;4.75;;;1.90;;
66342;SDS011;53144;51.524;5.080;2022-08-24T17:27:52;1.88;;;1.70;;
66342;SDS011;53144;51.524;5.080;2022-08-24T17:30:18;3.90;;;2.00;;
66342;SDS011;53144;51.524;5.080;2022-08-24T17:32:47;2.63;;;1.70;;
66342;SDS011;53144;51.524;5.080;2022-08-24T17:35:13;4.82;;;1.85;;
66342;SDS011;53144;51.524;5.080;2022-08-24T17:37:39;2.10;;;1.90;;
66342;SDS011;53144;51.524;5.080;2022-08-24T17:40:05;8.88;;;1.88;;
66342;SDS011;53144;51.524;5.080;2022-08-24T17:42:33;3.03;;;1.80;;
66342;SDS011;53144;51.524;5.080;2022-08-24T17:44:58;3.30;;;2.03;;
66342;SDS011;53144;51.524;5.080;2022-08-24T17:47:24;5.82;;;2.10;;
66342;SDS011;53144;51.524;5.080;2022-08-24T17:49:50;2.38;;;1.80;;
66342;SDS011;53144;51.524;5.080;2022-08-24T17:52:15;3.63;;;2.03;;
66342;SDS011;53144;51.524;5.080;2022-08-24T17:54:41;3.15;;;1.85;;
66342;SDS011;53144;51.524;5.080;2022-08-24T17:57:06;3.70;;;1.90;;
66342;SDS011;53144;51.524;5.080;2022-08-24T17:59:36;2.78;;;2.08;;
66342;SDS011;53144;51.524;5.080;2022-08-24T18:02:06;3.53;;;1.95;;
66342;SDS011;53144;51.524;5.080;2022-08-24T18:04:34;2.63;;;2.05;;
66342;SDS011;53144;51.524;5.080;2022-08-24T18:07:01;2.95;;;1.80;;
66342;SDS011;53144;51.524;5.080;2022-08-24T18:09:31;3.47;;;1.73;;
66342;SDS011;53144;51.524;5.080;2022-08-24T18:11:59;3.97;;;1.90;;
66342;SDS011;53144;51.524;5.080;2022-08-24T18:14:26;3.17;;;1.90;;
66342;SDS011;53144;51.524;5.080;2022-08-24T18:16:53;2.42;;;2.22;;
66342;SDS011;53144;51.524;5.080;2022-08-24T18:19:19;3.55;;;1.92;;
66342;SDS011;53144;51.524;5.080;2022-08-24T18:21:45;6.75;;;2.38;;
66342;SDS011;53144;51.524;5.080;2022-08-24T18:24:11;4.25;;;2.05;;
66342;SDS011;53144;51.524;5.080;2022-08-24T18:26:37;5.07;;;1.88;;
66342;SDS011;53144;51.524;5.080;2022-08-24T18:29:21;3.00;;;2.15;;
66342;SDS011;53144;51.524;5.080;2022-08-24T18:31:47;4.10;;;2.20;;
66342;SDS011;53144;51.524;5.080;2022-08-24T18:34:19;4.25;;;2.13;;
66342;SDS011;53144;51.524;5.080;2022-08-24T18:36:46;4.45;;;2.20;;
66342;SDS011;53144;51.524;5.080;2022-08-24T18:39:11;5.28;;;2.10;;
66342;SDS011;53144;51.524;5.080;2022-08-24T18:41:37;8.80;;;2.33;;
66342;SDS011;53144;51.524;5.080;2022-08-24T18:44:05;2.80;;;2.08;;
66342;SDS011;53144;51.524;5.080;2022-08-24T18:46:32;4.20;;;2.33;;
66342;SDS011;53144;51.524;5.080;2022-08-24T18:48:59;5.53;;;2.00;;
66342;SDS011;53144;51.524;5.080;2022-08-24T18:51:25;2.67;;;1.95;;
66342;SDS011;53144;51.524;5.080;2022-08-24T18:53:53;5.70;;;2.25;;
66342;SDS011;53144;51.524;5.080;2022-08-24T18:56:24;3.92;;;2.15;;
66342;SDS011;53144;51.524;5.080;2022-08-24T18:58:50;4.75;;;2.08;;